sensor_id;sensor_type;location;lat;lon;timestamp;P1;durP1;ratioP1;P2;durP2;ratioP2
41627;SDS011;27321;50.816;6.054;2023-06-14T09:49:05;3.45;;;2.42;;
41627;SDS011;27321;50.816;6.054;2023-06-14T09:52:12;5.07;;;2.55;;
41627;SDS011;27321;50.816;6.054;2023-06-14T09:55:19;4.50;;;2.63;;
41627;SDS011;27321;50.816;6.054;2023-06-14T10:01:26;2.40;;;2.20;;
41627;SDS011;27321;50.816;6.054;2023-06-14T10:04:31;3.50;;;2.35;;
41627;SDS011;27321;50.816;6.054;2023-06-14T10:10:57;3.90;;;2.33;;
41627;SDS011;27321;50.816;6.054;2023-06-14T10:13:58;3.58;;;2.38;;
41627;SDS011;27321;50.816;6.054;2023-06-14T10:17:04;3.17;;;2.17;;
41627;SDS011;27321;50.816;6.054;2023-06-14T10:20:14;5.00;;;2.53;;
41627;SDS011;27321;50.816;6.054;2023-06-14T10:23:35;2.70;;;2.10;;
41627;SDS011;27321;50.816;6.054;2023-06-14T10:26:54;4.35;;;2.42;;
41627;SDS011;27321;50.816;6.054;2023-06-14T10:30:01;3.08;;;2.47;;
41627;SDS011;27321;50.816;6.054;2023-06-14T10:33:07;5.13;;;2.30;;
41627;SDS011;27321;50.816;6.054;2023-06-14T10:39:22;2.38;;;2.17;;
41627;SDS011;27321;50.816;6.054;2023-06-14T10:49:38;2.42;;;2.00;;
41627;SDS011;27321;50.816;6.054;2023-06-14T10:52:42;2.22;;;2.00;;
41627;SDS011;27321;50.816;6.054;2023-06-14T10:55:44;2.10;;;1.95;;
41627;SDS011;27321;50.816;6.054;2023-06-14T10:58:44;2.30;;;1.80;;
41627;SDS011;27321;50.816;6.054;2023-06-14T11:05:14;3.20;;;1.85;;
41627;SDS011;27321;50.816;6.054;2023-06-14T11:11:44;3.20;;;1.70;;
41627;SDS011;27321;50.816;6.054;2023-06-14T11:14:48;1.95;;;1.77;;
41627;SDS011;27321;50.816;6.054;2023-06-14T11:17:50;5.65;;;2.15;;
41627;SDS011;27321;50.816;6.054;2023-06-14T11:20:53;2.25;;;1.73;;
41627;SDS011;27321;50.816;6.054;2023-06-14T11:23:54;6.47;;;1.77;;
41627;SDS011;27321;50.816;6.054;2023-06-14T11:26:56;3.03;;;1.90;;
41627;SDS011;27321;50.816;6.054;2023-06-14T11:32:59;2.63;;;1.95;;
41627;SDS011;27321;50.816;6.054;2023-06-14T11:36:03;1.90;;;1.70;;
41627;SDS011;27321;50.816;6.054;2023-06-14T11:39:08;4.80;;;2.03;;
41627;SDS011;27321;50.816;6.054;2023-06-14T11:42:13;2.53;;;1.90;;
41627;SDS011;27321;50.816;6.054;2023-06-14T11:45:17;2.38;;;1.90;;
41627;SDS011;27321;50.816;6.054;2023-06-14T11:48:18;3.58;;;2.10;;
41627;SDS011;27321;50.816;6.054;2023-06-14T11:51:19;2.17;;;1.73;;
41627;SDS011;27321;50.816;6.054;2023-06-14T11:54:21;4.22;;;2.13;;
41627;SDS011;27321;50.816;6.054;2023-06-14T11:57:22;1.90;;;1.80;;
41627;SDS011;27321;50.816;6.054;2023-06-14T12:00:24;3.28;;;2.00;;
41627;SDS011;27321;50.816;6.054;2023-06-14T12:03:26;3.90;;;1.80;;
41627;SDS011;27321;50.816;6.054;2023-06-14T12:06:30;3.65;;;2.38;;
41627;SDS011;27321;50.816;6.054;2023-06-14T12:09:36;5.05;;;2.13;;
41627;SDS011;27321;50.816;6.054;2023-06-14T12:12:37;3.17;;;1.60;;
41627;SDS011;27321;50.816;6.054;2023-06-14T12:15:40;6.78;;;2.03;;
41627;SDS011;27321;50.816;6.054;2023-06-14T12:18:41;6.28;;;1.63;;
41627;SDS011;27321;50.816;6.054;2023-06-14T12:21:46;2.33;;;1.73;;
41627;SDS011;27321;50.816;6.054;2023-06-14T12:24:48;3.55;;;1.90;;
41627;SDS011;27321;50.816;6.054;2023-06-14T12:27:49;4.88;;;1.77;;
41627;SDS011;27321;50.816;6.054;2023-06-14T12:30:50;5.55;;;1.63;;
41627;SDS011;27321;50.816;6.054;2023-06-14T12:33:52;2.72;;;1.95;;
41627;SDS011;27321;50.816;6.054;2023-06-14T12:36:53;2.38;;;1.48;;
41627;SDS011;27321;50.816;6.054;2023-06-14T12:42:55;1.83;;;1.63;;
41627;SDS011;27321;50.816;6.054;2023-06-14T12:45:56;2.75;;;1.70;;
41627;SDS011;27321;50.816;6.054;2023-06-14T12:48:57;5.43;;;1.65;;
41627;SDS011;27321;50.816;6.054;2023-06-14T12:51:58;2.88;;;1.80;;
41627;SDS011;27321;50.816;6.054;2023-06-14T12:54:59;2.83;;;1.75;;
41627;SDS011;27321;50.816;6.054;2023-06-14T13:01:01;2.83;;;1.95;;
41627;SDS011;27321;50.816;6.054;2023-06-14T13:04:02;3.15;;;2.00;;
41627;SDS011;27321;50.816;6.054;2023-06-14T13:07:03;2.25;;;1.73;;
41627;SDS011;27321;50.816;6.054;2023-06-14T13:10:05;3.53;;;1.67;;
41627;SDS011;27321;50.816;6.054;2023-06-14T13:13:07;2.38;;;1.80;;
41627;SDS011;27321;50.816;6.054;2023-06-14T13:16:08;2.78;;;1.95;;
41627;SDS011;27321;50.816;6.054;2023-06-14T13:19:11;2.83;;;1.73;;
41627;SDS011;27321;50.816;6.054;2023-06-14T13:22:11;3.13;;;1.85;;
41627;SDS011;27321;50.816;6.054;2023-06-14T13:25:12;2.15;;;1.65;;
41627;SDS011;27321;50.816;6.054;2023-06-14T13:28:13;3.25;;;2.08;;
41627;SDS011;27321;50.816;6.054;2023-06-14T13:31:14;4.18;;;2.00;;
41627;SDS011;27321;50.816;6.054;2023-06-14T13:34:15;5.43;;;1.95;;
41627;SDS011;27321;50.816;6.054;2023-06-14T13:37:16;3.03;;;1.73;;
41627;SDS011;27321;50.816;6.054;2023-06-14T13:40:17;3.78;;;1.90;;
41627;SDS011;27321;50.816;6.054;2023-06-14T13:43:21;2.00;;;1.90;;
41627;SDS011;27321;50.816;6.054;2023-06-14T13:46:23;5.20;;;2.25;;
41627;SDS011;27321;50.816;6.054;2023-06-14T13:49:24;3.97;;;2.10;;
41627;SDS011;27321;50.816;6.054;2023-06-14T13:52:25;2.78;;;2.28;;
41627;SDS011;27321;50.816;6.054;2023-06-14T13:55:26;3.00;;;2.00;;
41627;SDS011;27321;50.816;6.054;2023-06-14T13:58:27;7.00;;;2.53;;
41627;SDS011;27321;50.816;6.054;2023-06-14T14:01:29;2.85;;;1.80;;
41627;SDS011;27321;50.816;6.054;2023-06-14T14:04:30;3.10;;;2.00;;
41627;SDS011;27321;50.816;6.054;2023-06-14T14:10:32;3.47;;;2.20;;
41627;SDS011;27321;50.816;6.054;2023-06-14T14:13:33;2.10;;;1.90;;
41627;SDS011;27321;50.816;6.054;2023-06-14T14:16:36;4.00;;;1.98;;
41627;SDS011;27321;50.816;6.054;2023-06-14T14:19:37;12.55;;;2.00;;
41627;SDS011;27321;50.816;6.054;2023-06-14T14:22:38;3.20;;;2.10;;
41627;SDS011;27321;50.816;6.054;2023-06-14T14:25:40;5.80;;;2.15;;
41627;SDS011;27321;50.816;6.054;2023-06-14T14:28:41;2.13;;;1.88;;
41627;SDS011;27321;50.816;6.054;2023-06-14T14:31:42;2.50;;;2.17;;
41627;SDS011;27321;50.816;6.054;2023-06-14T14:34:43;2.63;;;1.88;;
41627;SDS011;27321;50.816;6.054;2023-06-14T14:37:44;2.45;;;2.22;;
41627;SDS011;27321;50.816;6.054;2023-06-14T14:43:46;2.33;;;1.88;;
41627;SDS011;27321;50.816;6.054;2023-06-14T14:46:47;4.53;;;2.35;;
41627;SDS011;27321;50.816;6.054;2023-06-14T14:49:48;3.03;;;1.95;;
41627;SDS011;27321;50.816;6.054;2023-06-14T14:52:48;7.05;;;2.65;;
41627;SDS011;27321;50.816;6.054;2023-06-14T14:55:49;2.55;;;2.35;;
41627;SDS011;27321;50.816;6.054;2023-06-14T14:58:50;3.30;;;2.10;;
41627;SDS011;27321;50.816;6.054;2023-06-14T15:01:52;3.85;;;2.30;;
41627;SDS011;27321;50.816;6.054;2023-06-14T15:07:54;2.60;;;2.13;;
41627;SDS011;27321;50.816;6.054;2023-06-14T15:10:55;3.47;;;2.20;;
41627;SDS011;27321;50.816;6.054;2023-06-14T15:13:56;3.80;;;1.85;;
41627;SDS011;27321;50.816;6.054;2023-06-14T15:16:58;2.95;;;1.88;;
41627;SDS011;27321;50.816;6.054;2023-06-14T15:20:01;3.08;;;1.88;;
41627;SDS011;27321;50.816;6.054;2023-06-14T15:23:04;3.40;;;1.90;;
41627;SDS011;27321;50.816;6.054;2023-06-14T15:29:06;4.07;;;2.15;;
41627;SDS011;27321;50.816;6.054;2023-06-14T15:38:09;1.63;;;1.45;;
41627;SDS011;27321;50.816;6.054;2023-06-14T15:41:10;2.42;;;1.40;;
41627;SDS011;27321;50.816;6.054;2023-06-14T15:47:11;4.72;;;1.67;;
41627;SDS011;27321;50.816;6.054;2023-06-14T15:50:12;1.92;;;1.45;;
41627;SDS011;27321;50.816;6.054;2023-06-14T15:53:13;1.65;;;1.55;;
41627;SDS011;27321;50.816;6.054;2023-06-14T15:56:14;1.88;;;1.70;;
41627;SDS011;27321;50.816;6.054;2023-06-14T15:59:15;1.48;;;1.38;;
41627;SDS011;27321;50.816;6.054;2023-06-14T16:02:16;1.67;;;1.58;;
41627;SDS011;27321;50.816;6.054;2023-06-14T16:05:17;5.93;;;1.73;;
41627;SDS011;27321;50.816;6.054;2023-06-14T16:08:18;1.95;;;1.65;;
41627;SDS011;27321;50.816;6.054;2023-06-14T16:11:20;2.10;;;1.60;;
41627;SDS011;27321;50.816;6.054;2023-06-14T16:14:21;1.70;;;1.58;;
41627;SDS011;27321;50.816;6.054;2023-06-14T16:17:22;3.00;;;1.80;;
41627;SDS011;27321;50.816;6.054;2023-06-14T16:20:23;1.48;;;1.33;;
41627;SDS011;27321;50.816;6.054;2023-06-14T16:23:24;2.15;;;1.42;;
41627;SDS011;27321;50.816;6.054;2023-06-14T16:26:25;2.45;;;1.40;;
41627;SDS011;27321;50.816;6.054;2023-06-14T16:29:27;3.30;;;1.90;;
41627;SDS011;27321;50.816;6.054;2023-06-14T16:32:28;1.80;;;1.70;;
41627;SDS011;27321;50.816;6.054;2023-06-14T16:35:29;1.58;;;1.40;;
41627;SDS011;27321;50.816;6.054;2023-06-14T16:38:31;2.00;;;1.63;;
41627;SDS011;27321;50.816;6.054;2023-06-14T16:41:32;2.03;;;1.40;;
41627;SDS011;27321;50.816;6.054;2023-06-14T16:44:33;1.60;;;1.50;;
41627;SDS011;27321;50.816;6.054;2023-06-14T16:47:34;1.95;;;1.30;;
41627;SDS011;27321;50.816;6.054;2023-06-14T16:50:35;2.28;;;1.63;;
41627;SDS011;27321;50.816;6.054;2023-06-14T16:53:36;2.03;;;1.67;;
41627;SDS011;27321;50.816;6.054;2023-06-14T16:56:37;1.80;;;1.70;;
41627;SDS011;27321;50.816;6.054;2023-06-14T16:59:38;2.75;;;1.67;;
41627;SDS011;27321;50.816;6.054;2023-06-14T17:02:39;1.67;;;1.55;;
41627;SDS011;27321;50.816;6.054;2023-06-14T17:05:53;2.60;;;1.90;;
41627;SDS011;27321;50.816;6.054;2023-06-14T17:08:57;2.83;;;1.75;;
41627;SDS011;27321;50.816;6.054;2023-06-14T17:11:58;3.45;;;1.77;;
41627;SDS011;27321;50.816;6.054;2023-06-14T17:14:59;1.95;;;1.52;;
41627;SDS011;27321;50.816;6.054;2023-06-14T17:18:00;3.28;;;1.92;;
41627;SDS011;27321;50.816;6.054;2023-06-14T17:21:01;3.15;;;1.80;;
41627;SDS011;27321;50.816;6.054;2023-06-14T17:24:02;2.20;;;1.90;;
41627;SDS011;27321;50.816;6.054;2023-06-14T17:27:03;2.17;;;1.98;;
41627;SDS011;27321;50.816;6.054;2023-06-14T17:30:06;5.00;;;1.83;;
41627;SDS011;27321;50.816;6.054;2023-06-14T17:33:08;2.20;;;2.00;;
41627;SDS011;27321;50.816;6.054;2023-06-14T17:36:09;2.20;;;2.03;;
41627;SDS011;27321;50.816;6.054;2023-06-14T17:39:10;2.15;;;2.05;;
41627;SDS011;27321;50.816;6.054;2023-06-14T17:42:11;2.03;;;1.92;;
41627;SDS011;27321;50.816;6.054;2023-06-14T17:45:12;3.45;;;3.10;;
41627;SDS011;27321;50.816;6.054;2023-06-14T17:48:13;3.00;;;1.83;;
41627;SDS011;27321;50.816;6.054;2023-06-14T17:51:14;2.03;;;1.90;;
41627;SDS011;27321;50.816;6.054;2023-06-14T17:54:15;2.22;;;2.03;;
41627;SDS011;27321;50.816;6.054;2023-06-14T17:57:16;1.95;;;1.75;;
41627;SDS011;27321;50.816;6.054;2023-06-14T18:03:18;2.20;;;2.00;;
41627;SDS011;27321;50.816;6.054;2023-06-14T18:06:20;2.17;;;2.00;;
41627;SDS011;27321;50.816;6.054;2023-06-14T18:09:21;2.75;;;2.50;;
41627;SDS011;27321;50.816;6.054;2023-06-14T18:15:23;2.22;;;2.03;;
41627;SDS011;27321;50.816;6.054;2023-06-14T18:18:24;3.42;;;2.00;;
41627;SDS011;27321;50.816;6.054;2023-06-14T18:24:26;1.67;;;1.58;;
41627;SDS011;27321;50.816;6.054;2023-06-14T18:30:29;1.80;;;1.70;;
41627;SDS011;27321;50.816;6.054;2023-06-14T18:33:31;3.13;;;1.88;;
41627;SDS011;27321;50.816;6.054;2023-06-14T18:36:32;2.83;;;1.73;;
41627;SDS011;27321;50.816;6.054;2023-06-14T18:39:33;1.90;;;1.80;;
41627;SDS011;27321;50.816;6.054;2023-06-14T18:42:34;2.00;;;1.90;;
41627;SDS011;27321;50.816;6.054;2023-06-14T18:48:36;1.73;;;1.63;;
41627;SDS011;27321;50.816;6.054;2023-06-14T18:51:38;2.20;;;2.00;;
41627;SDS011;27321;50.816;6.054;2023-06-14T18:54:40;1.73;;;1.63;;
41627;SDS011;27321;50.816;6.054;2023-06-14T18:57:41;1.67;;;1.58;;
41627;SDS011;27321;50.816;6.054;2023-06-14T19:00:42;2.22;;;1.80;;
41627;SDS011;27321;50.816;6.054;2023-06-14T19:03:43;2.10;;;1.90;;
41627;SDS011;27321;50.816;6.054;2023-06-14T19:06:44;2.10;;;1.90;;
41627;SDS011;27321;50.816;6.054;2023-06-14T19:09:45;1.80;;;1.70;;
41627;SDS011;27321;50.816;6.054;2023-06-14T19:12:46;2.03;;;1.92;;
41627;SDS011;27321;50.816;6.054;2023-06-14T19:15:47;1.98;;;1.85;;
41627;SDS011;27321;50.816;6.054;2023-06-14T19:18:53;1.75;;;1.65;;
41627;SDS011;27321;50.816;6.054;2023-06-14T19:21:54;1.80;;;1.70;;
41627;SDS011;27321;50.816;6.054;2023-06-14T19:24:55;2.05;;;1.88;;
41627;SDS011;27321;50.816;6.054;2023-06-14T19:27:56;2.80;;;1.80;;
41627;SDS011;27321;50.816;6.054;2023-06-14T19:30:57;2.00;;;1.90;;
41627;SDS011;27321;50.816;6.054;2023-06-14T19:33:58;1.80;;;1.70;;
41627;SDS011;27321;50.816;6.054;2023-06-14T19:36:59;2.00;;;1.88;;
41627;SDS011;27321;50.816;6.054;2023-06-14T19:40:02;2.33;;;2.15;;
41627;SDS011;27321;50.816;6.054;2023-06-14T19:43:05;1.75;;;1.65;;
41627;SDS011;27321;50.816;6.054;2023-06-14T19:46:07;1.70;;;1.60;;
41627;SDS011;27321;50.816;6.054;2023-06-14T19:49:08;2.22;;;2.03;;
41627;SDS011;27321;50.816;6.054;2023-06-14T19:52:09;2.00;;;1.77;;
41627;SDS011;27321;50.816;6.054;2023-06-14T19:55:10;1.80;;;1.67;;
41627;SDS011;27321;50.816;6.054;2023-06-14T20:01:12;1.65;;;1.55;;
41627;SDS011;27321;50.816;6.054;2023-06-14T20:04:14;2.00;;;1.90;;
41627;SDS011;27321;50.816;6.054;2023-06-14T20:07:15;1.90;;;1.80;;
41627;SDS011;27321;50.816;6.054;2023-06-14T20:10:16;1.80;;;1.70;;
41627;SDS011;27321;50.816;6.054;2023-06-14T20:13:16;2.03;;;1.90;;
41627;SDS011;27321;50.816;6.054;2023-06-14T20:16:17;1.77;;;1.67;;
41627;SDS011;27321;50.816;6.054;2023-06-14T20:19:18;2.05;;;1.85;;
41627;SDS011;27321;50.816;6.054;2023-06-14T20:22:20;2.45;;;1.67;;
41627;SDS011;27321;50.816;6.054;2023-06-14T20:25:20;2.05;;;1.80;;
41627;SDS011;27321;50.816;6.054;2023-06-14T20:28:21;2.20;;;2.10;;
41627;SDS011;27321;50.816;6.054;2023-06-14T20:31:22;2.28;;;2.05;;
41627;SDS011;27321;50.816;6.054;2023-06-14T20:34:23;2.00;;;1.90;;
41627;SDS011;27321;50.816;6.054;2023-06-14T20:37:24;1.90;;;1.80;;
41627;SDS011;27321;50.816;6.054;2023-06-14T20:40:26;1.98;;;1.88;;
41627;SDS011;27321;50.816;6.054;2023-06-14T20:43:27;2.05;;;1.95;;
41627;SDS011;27321;50.816;6.054;2023-06-14T20:46:28;1.85;;;1.75;;
41627;SDS011;27321;50.816;6.054;2023-06-14T20:49:30;1.77;;;1.67;;
41627;SDS011;27321;50.816;6.054;2023-06-14T20:52:32;1.85;;;1.73;;
41627;SDS011;27321;50.816;6.054;2023-06-14T20:55:33;1.92;;;1.70;;
41627;SDS011;27321;50.816;6.054;2023-06-14T20:58:34;2.15;;;2.05;;
41627;SDS011;27321;50.816;6.054;2023-06-14T21:01:35;2.05;;;1.95;;
41627;SDS011;27321;50.816;6.054;2023-06-14T21:04:36;4.95;;;2.10;;
41627;SDS011;27321;50.816;6.054;2023-06-14T21:07:38;2.20;;;2.00;;
41627;SDS011;27321;50.816;6.054;2023-06-14T21:10:39;2.38;;;2.17;;
41627;SDS011;27321;50.816;6.054;2023-06-14T21:13:40;4.35;;;2.50;;
41627;SDS011;27321;50.816;6.054;2023-06-14T21:16:41;2.83;;;2.60;;
41627;SDS011;27321;50.816;6.054;2023-06-14T21:19:42;2.58;;;2.38;;
41627;SDS011;27321;50.816;6.054;2023-06-14T21:22:43;2.22;;;2.10;;
41627;SDS011;27321;50.816;6.054;2023-06-14T21:25:44;2.40;;;2.20;;
41627;SDS011;27321;50.816;6.054;2023-06-14T21:28:44;2.45;;;2.25;;
41627;SDS011;27321;50.816;6.054;2023-06-14T21:31:45;2.45;;;2.25;;
41627;SDS011;27321;50.816;6.054;2023-06-14T21:34:47;2.63;;;2.30;;
41627;SDS011;27321;50.816;6.054;2023-06-14T21:37:48;2.50;;;2.30;;
41627;SDS011;27321;50.816;6.054;2023-06-14T21:40:49;2.30;;;2.10;;
41627;SDS011;27321;50.816;6.054;2023-06-14T21:43:50;2.55;;;2.35;;
41627;SDS011;27321;50.816;6.054;2023-06-14T21:46:51;2.83;;;2.30;;
41627;SDS011;27321;50.816;6.054;2023-06-14T21:49:51;2.25;;;2.03;;
41627;SDS011;27321;50.816;6.054;2023-06-14T21:52:52;2.10;;;2.00;;
41627;SDS011;27321;50.816;6.054;2023-06-14T21:55:53;2.25;;;2.05;;
41627;SDS011;27321;50.816;6.054;2023-06-14T21:58:54;2.47;;;2.10;;
41627;SDS011;27321;50.816;6.054;2023-06-14T22:01:58;2.80;;;2.60;;
41627;SDS011;27321;50.816;6.054;2023-06-14T22:04:59;4.68;;;2.38;;
41627;SDS011;27321;50.816;6.054;2023-06-14T22:08:00;2.92;;;2.40;;
41627;SDS011;27321;50.816;6.054;2023-06-14T22:11:02;2.20;;;2.00;;
41627;SDS011;27321;50.816;6.054;2023-06-14T22:14:08;2.88;;;2.45;;
41627;SDS011;27321;50.816;6.054;2023-06-14T22:17:09;2.70;;;2.50;;
41627;SDS011;27321;50.816;6.054;2023-06-14T22:20:14;2.30;;;2.20;;
41627;SDS011;27321;50.816;6.054;2023-06-14T22:23:15;2.53;;;2.33;;
41627;SDS011;27321;50.816;6.054;2023-06-14T22:26:16;5.63;;;2.33;;
41627;SDS011;27321;50.816;6.054;2023-06-14T22:29:18;2.75;;;2.55;;
41627;SDS011;27321;50.816;6.054;2023-06-14T22:32:23;3.15;;;2.45;;
41627;SDS011;27321;50.816;6.054;2023-06-14T22:35:28;2.33;;;2.20;;
41627;SDS011;27321;50.816;6.054;2023-06-14T22:38:29;2.20;;;2.10;;
41627;SDS011;27321;50.816;6.054;2023-06-14T22:41:31;2.40;;;2.20;;
41627;SDS011;27321;50.816;6.054;2023-06-14T22:44:34;3.28;;;2.20;;
41627;SDS011;27321;50.816;6.054;2023-06-14T22:47:35;2.20;;;2.10;;
41627;SDS011;27321;50.816;6.054;2023-06-14T22:50:37;2.70;;;2.50;;
41627;SDS011;27321;50.816;6.054;2023-06-14T22:53:38;2.75;;;2.50;;
41627;SDS011;27321;50.816;6.054;2023-06-14T22:56:40;2.60;;;2.40;;
41627;SDS011;27321;50.816;6.054;2023-06-14T22:59:42;2.33;;;2.13;;
41627;SDS011;27321;50.816;6.054;2023-06-14T23:02:43;2.60;;;2.40;;
41627;SDS011;27321;50.816;6.054;2023-06-14T23:05:45;2.22;;;2.13;;
41627;SDS011;27321;50.816;6.054;2023-06-14T23:11:50;3.03;;;2.42;;
41627;SDS011;27321;50.816;6.054;2023-06-14T23:14:50;2.92;;;2.58;;
41627;SDS011;27321;50.816;6.054;2023-06-14T23:17:51;3.15;;;2.58;;
41627;SDS011;27321;50.816;6.054;2023-06-14T23:20:52;2.63;;;2.42;;
41627;SDS011;27321;50.816;6.054;2023-06-14T23:23:53;2.25;;;2.15;;
41627;SDS011;27321;50.816;6.054;2023-06-14T23:26:55;2.83;;;2.50;;
41627;SDS011;27321;50.816;6.054;2023-06-14T23:30:01;2.53;;;2.33;;
41627;SDS011;27321;50.816;6.054;2023-06-14T23:33:04;2.70;;;2.50;;
41627;SDS011;27321;50.816;6.054;2023-06-14T23:36:05;2.78;;;2.40;;
41627;SDS011;27321;50.816;6.054;2023-06-14T23:39:08;2.67;;;2.40;;
41627;SDS011;27321;50.816;6.054;2023-06-14T23:42:09;2.55;;;2.35;;
41627;SDS011;27321;50.816;6.054;2023-06-14T23:45:10;3.42;;;2.55;;
41627;SDS011;27321;50.816;6.054;2023-06-14T23:48:12;2.63;;;2.40;;
41627;SDS011;27321;50.816;6.054;2023-06-14T23:51:13;2.63;;;2.42;;
41627;SDS011;27321;50.816;6.054;2023-06-14T23:54:15;2.90;;;2.60;;
41627;SDS011;27321;50.816;6.054;2023-06-14T23:57:17;3.42;;;2.60;;
